sensor_id;sensor_type;location;lat;lon;timestamp;temperature;humidity
9167;DHT22;4618;48.818;9.088;2024-03-17T09:54:35;17.60;35.50
9167;DHT22;4618;48.818;9.088;2024-03-17T09:57:36;17.60;6.00
9167;DHT22;4618;48.818;9.088;2024-03-17T10:00:14;18.20;1.00
9167;DHT22;4618;48.818;9.088;2024-03-17T10:06:44;18.90;1.00
9167;DHT22;4618;48.818;9.088;2024-03-17T10:09:27;17.80;1.00
9167;DHT22;4618;48.818;9.088;2024-03-17T10:12:05;17.60;1.00
9167;DHT22;4618;48.818;9.088;2024-03-17T10:15:00;17.80;1.00
9167;DHT22;4618;48.818;9.088;2024-03-17T10:17:32;18.10;1.00
9167;DHT22;4618;48.818;9.088;2024-03-17T10:20:19;18.10;1.00
9167;DHT22;4618;48.818;9.088;2024-03-17T10:23:06;17.90;1.00
9167;DHT22;4618;48.818;9.088;2024-03-17T10:28:46;17.20;1.00
9167;DHT22;4618;48.818;9.088;2024-03-17T10:34:26;17.00;1.00
9167;DHT22;4618;48.818;9.088;2024-03-17T10:40:17;16.50;1.00
9167;DHT22;4618;48.818;9.088;2024-03-17T10:42:52;16.40;1.00
9167;DHT22;4618;48.818;9.088;2024-03-17T10:45:27;16.30;1.00
9167;DHT22;4618;48.818;9.088;2024-03-17T10:48:07;16.40;1.00
9167;DHT22;4618;48.818;9.088;2024-03-17T10:50:38;16.70;1.00
9167;DHT22;4618;48.818;9.088;2024-03-17T10:53:06;16.60;1.00
9167;DHT22;4618;48.818;9.088;2024-03-17T10:55:46;16.90;1.00
9167;DHT22;4618;48.818;9.088;2024-03-17T11:01:03;18.50;1.00
9167;DHT22;4618;48.818;9.088;2024-03-17T11:03:33;18.60;1.00
9167;DHT22;4618;48.818;9.088;2024-03-17T11:06:05;18.70;1.00
9167;DHT22;4618;48.818;9.088;2024-03-17T11:08:35;18.90;1.00
9167;DHT22;4618;48.818;9.088;2024-03-17T11:11:02;18.30;1.00
9167;DHT22;4618;48.818;9.088;2024-03-17T11:13:31;18.20;1.00
9167;DHT22;4618;48.818;9.088;2024-03-17T11:15:58;18.30;1.00
9167;DHT22;4618;48.818;9.088;2024-03-17T12:02:27;18.30;99.90
9167;DHT22;4618;48.818;9.088;2024-03-17T12:05:05;17.90;99.90
9167;DHT22;4618;48.818;9.088;2024-03-17T12:07:38;18.00;99.90
9167;DHT22;4618;48.818;9.088;2024-03-17T12:10:10;18.00;99.90
9167;DHT22;4618;48.818;9.088;2024-03-17T12:12:39;18.50;99.90
9167;DHT22;4618;48.818;9.088;2024-03-17T12:15:25;18.70;99.90
9167;DHT22;4618;48.818;9.088;2024-03-17T12:17:57;18.70;99.90
9167;DHT22;4618;48.818;9.088;2024-03-17T12:20:31;19.10;99.90
9167;DHT22;4618;48.818;9.088;2024-03-17T12:23:04;19.40;99.90
9167;DHT22;4618;48.818;9.088;2024-03-17T12:39:27;18.30;99.90
9167;DHT22;4618;48.818;9.088;2024-03-17T12:44:34;16.60;99.90
9167;DHT22;4618;48.818;9.088;2024-03-17T12:47:02;16.00;99.90
9167;DHT22;4618;48.818;9.088;2024-03-17T12:49:33;15.90;99.90
9167;DHT22;4618;48.818;9.088;2024-03-17T12:52:02;16.30;99.90
9167;DHT22;4618;48.818;9.088;2024-03-17T12:54:28;16.80;99.90
9167;DHT22;4618;48.818;9.088;2024-03-17T12:57:08;17.30;99.90
9167;DHT22;4618;48.818;9.088;2024-03-17T12:59:53;17.30;99.90
9167;DHT22;4618;48.818;9.088;2024-03-17T13:02:21;17.10;99.90
9167;DHT22;4618;48.818;9.088;2024-03-17T13:05:06;17.80;99.90
9167;DHT22;4618;48.818;9.088;2024-03-17T13:07:32;17.90;99.90
9167;DHT22;4618;48.818;9.088;2024-03-17T13:10:01;18.30;99.90
9167;DHT22;4618;48.818;9.088;2024-03-17T13:12:36;17.30;99.90
9167;DHT22;4618;48.818;9.088;2024-03-17T13:15:01;17.50;99.90
9167;DHT22;4618;48.818;9.088;2024-03-17T13:17:27;17.80;99.90
9167;DHT22;4618;48.818;9.088;2024-03-17T13:19:54;18.50;99.90
9167;DHT22;4618;48.818;9.088;2024-03-17T13:22:20;18.80;99.90
9167;DHT22;4618;48.818;9.088;2024-03-17T13:24:46;18.70;99.90
9167;DHT22;4618;48.818;9.088;2024-03-17T13:27:23;18.10;99.90
9167;DHT22;4618;48.818;9.088;2024-03-17T13:29:49;18.60;99.90
9167;DHT22;4618;48.818;9.088;2024-03-17T13:32:15;19.30;99.90
9167;DHT22;4618;48.818;9.088;2024-03-17T13:34:43;19.60;99.90
9167;DHT22;4618;48.818;9.088;2024-03-17T13:37:10;19.70;99.90
9167;DHT22;4618;48.818;9.088;2024-03-17T13:39:36;19.60;99.90
9167;DHT22;4618;48.818;9.088;2024-03-17T13:42:02;19.30;99.90
9167;DHT22;4618;48.818;9.088;2024-03-17T13:44:32;19.40;99.90
9167;DHT22;4618;48.818;9.088;2024-03-17T13:46:59;19.00;99.90
9167;DHT22;4618;48.818;9.088;2024-03-17T13:49:29;19.00;99.90
9167;DHT22;4618;48.818;9.088;2024-03-17T13:51:55;18.90;99.90
9167;DHT22;4618;48.818;9.088;2024-03-17T13:54:22;18.70;99.90
9167;DHT22;4618;48.818;9.088;2024-03-17T13:56:49;18.60;99.90
9167;DHT22;4618;48.818;9.088;2024-03-17T13:59:16;18.40;99.90
9167;DHT22;4618;48.818;9.088;2024-03-17T14:01:56;17.90;99.90
9167;DHT22;4618;48.818;9.088;2024-03-17T14:04:28;18.00;99.90
9167;DHT22;4618;48.818;9.088;2024-03-17T14:06:54;17.80;99.90
9167;DHT22;4618;48.818;9.088;2024-03-17T14:09:20;18.10;99.90
9167;DHT22;4618;48.818;9.088;2024-03-17T14:11:49;18.00;99.90
9167;DHT22;4618;48.818;9.088;2024-03-17T14:14:18;18.50;99.90
9167;DHT22;4618;48.818;9.088;2024-03-17T14:16:44;18.80;99.90
9167;DHT22;4618;48.818;9.088;2024-03-17T14:19:10;18.90;99.90
9167;DHT22;4618;48.818;9.088;2024-03-17T14:22:04;18.80;99.90
9167;DHT22;4618;48.818;9.088;2024-03-17T14:24:58;18.90;99.90
9167;DHT22;4618;48.818;9.088;2024-03-17T14:27:42;19.70;99.90
9167;DHT22;4618;48.818;9.088;2024-03-17T14:30:19;20.20;99.90
9167;DHT22;4618;48.818;9.088;2024-03-17T14:33:08;20.70;99.90
9167;DHT22;4618;48.818;9.088;2024-03-17T14:35:34;20.70;99.90
9167;DHT22;4618;48.818;9.088;2024-03-17T14:38:02;20.50;99.90
9167;DHT22;4618;48.818;9.088;2024-03-17T14:40:30;20.00;99.90
9167;DHT22;4618;48.818;9.088;2024-03-17T14:43:19;19.60;99.90
9167;DHT22;4618;48.818;9.088;2024-03-17T14:46:08;20.00;99.90
9167;DHT22;4618;48.818;9.088;2024-03-17T14:48:58;20.30;99.90
9167;DHT22;4618;48.818;9.088;2024-03-17T14:51:50;20.00;99.90
9167;DHT22;4618;48.818;9.088;2024-03-17T14:57:47;20.00;99.90
9167;DHT22;4618;48.818;9.088;2024-03-17T15:00:15;19.30;99.90
9167;DHT22;4618;48.818;9.088;2024-03-17T15:02:46;19.40;99.90
9167;DHT22;4618;48.818;9.088;2024-03-17T15:05:16;19.60;99.20
9167;DHT22;4618;48.818;9.088;2024-03-17T15:07:45;19.60;90.80
9167;DHT22;4618;48.818;9.088;2024-03-17T15:10:12;19.80;75.00
9167;DHT22;4618;48.818;9.088;2024-03-17T15:12:39;20.00;74.60
9167;DHT22;4618;48.818;9.088;2024-03-17T15:15:06;19.90;74.40
9167;DHT22;4618;48.818;9.088;2024-03-17T23:13:43;8.60;99.90
9167;DHT22;4618;48.818;9.088;2024-03-17T23:16:39;8.70;99.90
9167;DHT22;4618;48.818;9.088;2024-03-17T23:22:48;8.70;99.90
9167;DHT22;4618;48.818;9.088;2024-03-17T23:25:44;8.70;1.00
9167;DHT22;4618;48.818;9.088;2024-03-17T23:28:12;8.60;1.00
9167;DHT22;4618;48.818;9.088;2024-03-17T23:30:47;8.60;1.00
9167;DHT22;4618;48.818;9.088;2024-03-17T23:33:14;8.50;1.00
9167;DHT22;4618;48.818;9.088;2024-03-17T23:35:43;8.50;1.00
9167;DHT22;4618;48.818;9.088;2024-03-17T23:41:26;8.70;1.00
9167;DHT22;4618;48.818;9.088;2024-03-17T23:50:14;8.60;1.00
9167;DHT22;4618;48.818;9.088;2024-03-17T23:53:05;8.70;1.00
9167;DHT22;4618;48.818;9.088;2024-03-17T23:55:39;8.60;1.00
